sensor_id;sensor_type;location;lat;lon;timestamp;temperature;humidity
23783;DHT22;12071;50.850;4.446;2022-08-03T00:01:04;24.30;99.90
23783;DHT22;12071;50.850;4.446;2022-08-03T00:03:30;24.30;99.90
23783;DHT22;12071;50.850;4.446;2022-08-03T00:05:56;24.10;99.90
23783;DHT22;12071;50.850;4.446;2022-08-03T00:08:21;23.90;99.90
23783;DHT22;12071;50.850;4.446;2022-08-03T00:10:47;23.90;99.90
23783;DHT22;12071;50.850;4.446;2022-08-03T00:13:13;23.90;99.90
23783;DHT22;12071;50.850;4.446;2022-08-03T00:15:40;23.90;99.90
23783;DHT22;12071;50.850;4.446;2022-08-03T00:18:07;23.90;99.90
23783;DHT22;12071;50.850;4.446;2022-08-03T00:20:32;24.00;99.90
23783;DHT22;12071;50.850;4.446;2022-08-03T00:22:58;23.80;99.90
23783;DHT22;12071;50.850;4.446;2022-08-03T00:25:24;23.80;1.00
23783;DHT22;12071;50.850;4.446;2022-08-03T00:27:49;23.80;1.00
23783;DHT22;12071;50.850;4.446;2022-08-03T00:30:15;23.70;1.00
23783;DHT22;12071;50.850;4.446;2022-08-03T00:32:41;23.70;1.00
23783;DHT22;12071;50.850;4.446;2022-08-03T00:35:07;23.80;1.00
23783;DHT22;12071;50.850;4.446;2022-08-03T00:37:32;23.80;1.00
23783;DHT22;12071;50.850;4.446;2022-08-03T00:39:58;23.80;1.00
23783;DHT22;12071;50.850;4.446;2022-08-03T00:42:24;23.50;1.00
23783;DHT22;12071;50.850;4.446;2022-08-03T00:44:49;23.60;1.00
23783;DHT22;12071;50.850;4.446;2022-08-03T00:47:15;23.50;1.00
23783;DHT22;12071;50.850;4.446;2022-08-03T00:49:41;23.70;1.00
23783;DHT22;12071;50.850;4.446;2022-08-03T00:52:08;23.70;1.00
23783;DHT22;12071;50.850;4.446;2022-08-03T00:54:36;23.60;1.00
23783;DHT22;12071;50.850;4.446;2022-08-03T00:57:03;23.50;1.00
23783;DHT22;12071;50.850;4.446;2022-08-03T00:59:29;23.40;1.00
23783;DHT22;12071;50.850;4.446;2022-08-03T01:01:55;23.40;1.00
23783;DHT22;12071;50.850;4.446;2022-08-03T01:04:21;23.40;14.50
23783;DHT22;12071;50.850;4.446;2022-08-03T01:07:00;23.30;59.50
23783;DHT22;12071;50.850;4.446;2022-08-03T01:12:34;23.40;83.60
23783;DHT22;12071;50.850;4.446;2022-08-03T01:15:16;23.40;36.70
23783;DHT22;12071;50.850;4.446;2022-08-03T01:18:06;23.40;82.10
23783;DHT22;12071;50.850;4.446;2022-08-03T01:20:37;23.40;63.40
23783;DHT22;12071;50.850;4.446;2022-08-03T01:23:34;23.40;84.40
23783;DHT22;12071;50.850;4.446;2022-08-03T01:29:08;23.10;99.90
23783;DHT22;12071;50.850;4.446;2022-08-03T01:31:54;23.10;99.90
23783;DHT22;12071;50.850;4.446;2022-08-03T01:34:23;23.00;99.90
23783;DHT22;12071;50.850;4.446;2022-08-03T01:36:52;23.00;99.90
23783;DHT22;12071;50.850;4.446;2022-08-03T01:39:18;23.00;99.90
23783;DHT22;12071;50.850;4.446;2022-08-03T01:41:55;23.00;99.90
23783;DHT22;12071;50.850;4.446;2022-08-03T01:44:29;22.90;99.90
23783;DHT22;12071;50.850;4.446;2022-08-03T01:46:59;22.90;99.90
23783;DHT22;12071;50.850;4.446;2022-08-03T01:49:26;22.80;99.90
23783;DHT22;12071;50.850;4.446;2022-08-03T01:51:53;23.00;99.90
23783;DHT22;12071;50.850;4.446;2022-08-03T01:54:20;23.00;99.90
23783;DHT22;12071;50.850;4.446;2022-08-03T01:56:48;22.90;99.90
23783;DHT22;12071;50.850;4.446;2022-08-03T01:59:16;22.90;99.90
23783;DHT22;12071;50.850;4.446;2022-08-03T02:01:44;22.80;99.90
23783;DHT22;12071;50.850;4.446;2022-08-03T02:04:12;22.80;99.90
23783;DHT22;12071;50.850;4.446;2022-08-03T02:06:39;22.70;99.90
23783;DHT22;12071;50.850;4.446;2022-08-03T02:09:06;22.80;99.90
23783;DHT22;12071;50.850;4.446;2022-08-03T02:11:35;22.80;99.90
23783;DHT22;12071;50.850;4.446;2022-08-03T02:14:03;22.70;99.90
23783;DHT22;12071;50.850;4.446;2022-08-03T02:16:30;22.60;99.90
23783;DHT22;12071;50.850;4.446;2022-08-03T02:18:57;22.50;99.90
23783;DHT22;12071;50.850;4.446;2022-08-03T02:21:24;22.40;99.90
23783;DHT22;12071;50.850;4.446;2022-08-03T02:23:51;22.40;99.90
23783;DHT22;12071;50.850;4.446;2022-08-03T02:26:19;22.50;99.90
23783;DHT22;12071;50.850;4.446;2022-08-03T02:28:47;22.30;99.90
23783;DHT22;12071;50.850;4.446;2022-08-03T02:31:19;22.30;99.90
23783;DHT22;12071;50.850;4.446;2022-08-03T02:33:50;22.10;99.90
23783;DHT22;12071;50.850;4.446;2022-08-03T02:36:21;22.00;99.90
23783;DHT22;12071;50.850;4.446;2022-08-03T02:38:48;21.90;99.90
23783;DHT22;12071;50.850;4.446;2022-08-03T02:41:23;21.70;99.90
23783;DHT22;12071;50.850;4.446;2022-08-03T02:43:52;21.60;99.90
23783;DHT22;12071;50.850;4.446;2022-08-03T02:46:19;21.70;99.90
23783;DHT22;12071;50.850;4.446;2022-08-03T02:48:47;21.90;99.90
23783;DHT22;12071;50.850;4.446;2022-08-03T02:51:18;22.00;99.90
23783;DHT22;12071;50.850;4.446;2022-08-03T02:53:45;21.60;99.90
23783;DHT22;12071;50.850;4.446;2022-08-03T02:56:12;21.40;99.90
23783;DHT22;12071;50.850;4.446;2022-08-03T02:58:42;21.30;1.00
23783;DHT22;12071;50.850;4.446;2022-08-03T03:01:08;21.30;1.00
23783;DHT22;12071;50.850;4.446;2022-08-03T03:03:35;21.30;1.00
23783;DHT22;12071;50.850;4.446;2022-08-03T03:06:02;21.30;1.00
23783;DHT22;12071;50.850;4.446;2022-08-03T03:08:28;21.40;1.00
23783;DHT22;12071;50.850;4.446;2022-08-03T03:10:59;21.40;1.00
23783;DHT22;12071;50.850;4.446;2022-08-03T03:13:28;21.40;1.00
23783;DHT22;12071;50.850;4.446;2022-08-03T03:15:56;21.30;1.00
23783;DHT22;12071;50.850;4.446;2022-08-03T03:18:22;21.20;1.00
23783;DHT22;12071;50.850;4.446;2022-08-03T03:20:52;21.20;1.00
23783;DHT22;12071;50.850;4.446;2022-08-03T03:23:22;21.00;1.00
23783;DHT22;12071;50.850;4.446;2022-08-03T03:25:49;21.10;1.00
23783;DHT22;12071;50.850;4.446;2022-08-03T03:28:15;21.00;1.00
23783;DHT22;12071;50.850;4.446;2022-08-03T03:30:42;21.10;1.00
23783;DHT22;12071;50.850;4.446;2022-08-03T03:33:07;20.80;1.00
23783;DHT22;12071;50.850;4.446;2022-08-03T03:35:34;20.50;1.00
23783;DHT22;12071;50.850;4.446;2022-08-03T03:37:59;20.40;1.00
23783;DHT22;12071;50.850;4.446;2022-08-03T03:40:26;20.30;1.00
23783;DHT22;12071;50.850;4.446;2022-08-03T03:42:52;20.10;1.00
23783;DHT22;12071;50.850;4.446;2022-08-03T03:45:18;20.20;1.00
23783;DHT22;12071;50.850;4.446;2022-08-03T03:47:45;20.20;1.00
23783;DHT22;12071;50.850;4.446;2022-08-03T03:50:10;20.10;1.00
23783;DHT22;12071;50.850;4.446;2022-08-03T03:52:36;20.20;1.00
23783;DHT22;12071;50.850;4.446;2022-08-03T03:55:02;20.10;1.00
23783;DHT22;12071;50.850;4.446;2022-08-03T03:57:28;20.10;1.00
23783;DHT22;12071;50.850;4.446;2022-08-03T03:59:54;20.00;1.00
23783;DHT22;12071;50.850;4.446;2022-08-03T04:02:19;20.20;1.00
23783;DHT22;12071;50.850;4.446;2022-08-03T04:04:45;20.30;1.00
23783;DHT22;12071;50.850;4.446;2022-08-03T04:07:35;20.20;1.00
23783;DHT22;12071;50.850;4.446;2022-08-03T04:10:22;20.00;1.00
23783;DHT22;12071;50.850;4.446;2022-08-03T04:13:10;19.90;1.00
23783;DHT22;12071;50.850;4.446;2022-08-03T04:15:38;19.90;1.00
23783;DHT22;12071;50.850;4.446;2022-08-03T04:18:06;20.10;1.00
23783;DHT22;12071;50.850;4.446;2022-08-03T04:20:34;20.10;1.00
23783;DHT22;12071;50.850;4.446;2022-08-03T04:23:02;19.70;1.00
23783;DHT22;12071;50.850;4.446;2022-08-03T04:25:31;19.60;1.00
23783;DHT22;12071;50.850;4.446;2022-08-03T04:27:59;19.60;1.00
23783;DHT22;12071;50.850;4.446;2022-08-03T04:30:27;19.70;1.00
23783;DHT22;12071;50.850;4.446;2022-08-03T04:32:57;19.60;1.00
23783;DHT22;12071;50.850;4.446;2022-08-03T04:35:30;19.50;1.00
23783;DHT22;12071;50.850;4.446;2022-08-03T04:38:00;19.60;1.00
23783;DHT22;12071;50.850;4.446;2022-08-03T04:40:30;19.70;1.00
23783;DHT22;12071;50.850;4.446;2022-08-03T04:42:58;19.70;1.00
23783;DHT22;12071;50.850;4.446;2022-08-03T04:45:24;20.00;1.00
23783;DHT22;12071;50.850;4.446;2022-08-03T04:47:51;19.80;1.00
23783;DHT22;12071;50.850;4.446;2022-08-03T04:50:18;19.70;1.00
23783;DHT22;12071;50.850;4.446;2022-08-03T04:52:44;19.90;1.00
23783;DHT22;12071;50.850;4.446;2022-08-03T04:55:09;19.90;1.00
23783;DHT22;12071;50.850;4.446;2022-08-03T04:57:35;19.90;1.00
23783;DHT22;12071;50.850;4.446;2022-08-03T05:00:01;19.90;1.00
23783;DHT22;12071;50.850;4.446;2022-08-03T05:02:27;20.10;1.00
23783;DHT22;12071;50.850;4.446;2022-08-03T05:04:52;20.20;1.00
23783;DHT22;12071;50.850;4.446;2022-08-03T05:07:18;20.40;1.00
23783;DHT22;12071;50.850;4.446;2022-08-03T05:09:44;20.30;1.00
23783;DHT22;12071;50.850;4.446;2022-08-03T05:12:10;20.40;1.00
23783;DHT22;12071;50.850;4.446;2022-08-03T05:14:37;20.50;1.00
23783;DHT22;12071;50.850;4.446;2022-08-03T05:17:07;20.50;1.00
23783;DHT22;12071;50.850;4.446;2022-08-03T05:19:34;20.50;1.00
23783;DHT22;12071;50.850;4.446;2022-08-03T05:21:59;20.50;1.00
23783;DHT22;12071;50.850;4.446;2022-08-03T05:24:25;20.60;1.00
23783;DHT22;12071;50.850;4.446;2022-08-03T05:26:51;20.90;1.00
23783;DHT22;12071;50.850;4.446;2022-08-03T05:29:17;20.90;1.00
23783;DHT22;12071;50.850;4.446;2022-08-03T05:31:43;21.00;1.00
23783;DHT22;12071;50.850;4.446;2022-08-03T05:34:08;20.90;1.00
23783;DHT22;12071;50.850;4.446;2022-08-03T05:36:34;21.10;1.00
23783;DHT22;12071;50.850;4.446;2022-08-03T05:39:00;21.00;1.00
23783;DHT22;12071;50.850;4.446;2022-08-03T05:41:25;21.10;1.00
23783;DHT22;12071;50.850;4.446;2022-08-03T05:43:51;21.30;1.00
23783;DHT22;12071;50.850;4.446;2022-08-03T05:46:18;21.40;1.00
23783;DHT22;12071;50.850;4.446;2022-08-03T05:48:44;21.40;1.00
23783;DHT22;12071;50.850;4.446;2022-08-03T05:51:10;21.60;1.00
23783;DHT22;12071;50.850;4.446;2022-08-03T05:53:36;21.90;1.00
23783;DHT22;12071;50.850;4.446;2022-08-03T05:56:02;21.70;1.00
23783;DHT22;12071;50.850;4.446;2022-08-03T05:58:28;21.50;1.00
23783;DHT22;12071;50.850;4.446;2022-08-03T06:00:54;21.50;1.00
23783;DHT22;12071;50.850;4.446;2022-08-03T06:03:19;21.30;1.00
23783;DHT22;12071;50.850;4.446;2022-08-03T06:05:45;21.50;1.00
23783;DHT22;12071;50.850;4.446;2022-08-03T06:08:11;21.70;1.00
23783;DHT22;12071;50.850;4.446;2022-08-03T06:10:37;21.90;1.00
23783;DHT22;12071;50.850;4.446;2022-08-03T06:13:03;22.00;1.00
23783;DHT22;12071;50.850;4.446;2022-08-03T06:15:29;22.10;1.00
23783;DHT22;12071;50.850;4.446;2022-08-03T06:17:57;22.20;99.90
23783;DHT22;12071;50.850;4.446;2022-08-03T06:20:23;22.20;1.00
23783;DHT22;12071;50.850;4.446;2022-08-03T06:22:49;22.20;99.90
23783;DHT22;12071;50.850;4.446;2022-08-03T06:25:14;22.40;99.90
23783;DHT22;12071;50.850;4.446;2022-08-03T06:27:41;22.20;99.90
23783;DHT22;12071;50.850;4.446;2022-08-03T06:30:08;22.30;99.90
23783;DHT22;12071;50.850;4.446;2022-08-03T06:32:39;22.30;99.90
23783;DHT22;12071;50.850;4.446;2022-08-03T06:35:06;22.50;99.90
23783;DHT22;12071;50.850;4.446;2022-08-03T06:37:45;22.60;99.90
23783;DHT22;12071;50.850;4.446;2022-08-03T06:40:12;22.70;99.90
23783;DHT22;12071;50.850;4.446;2022-08-03T06:42:39;22.60;99.90
23783;DHT22;12071;50.850;4.446;2022-08-03T06:45:06;22.50;99.90
23783;DHT22;12071;50.850;4.446;2022-08-03T06:47:33;22.80;99.90
23783;DHT22;12071;50.850;4.446;2022-08-03T06:49:59;23.00;99.90
23783;DHT22;12071;50.850;4.446;2022-08-03T06:52:24;23.20;99.90
23783;DHT22;12071;50.850;4.446;2022-08-03T06:54:50;23.20;99.90
23783;DHT22;12071;50.850;4.446;2022-08-03T06:57:16;23.30;99.90
23783;DHT22;12071;50.850;4.446;2022-08-03T06:59:43;23.20;99.90
23783;DHT22;12071;50.850;4.446;2022-08-03T07:02:08;23.20;99.90
23783;DHT22;12071;50.850;4.446;2022-08-03T07:04:34;23.40;99.90
23783;DHT22;12071;50.850;4.446;2022-08-03T07:07:00;23.40;99.90
23783;DHT22;12071;50.850;4.446;2022-08-03T07:09:26;23.40;99.90
23783;DHT22;12071;50.850;4.446;2022-08-03T07:11:52;23.60;99.90
23783;DHT22;12071;50.850;4.446;2022-08-03T07:14:18;23.50;99.90
23783;DHT22;12071;50.850;4.446;2022-08-03T07:16:44;23.40;99.90
23783;DHT22;12071;50.850;4.446;2022-08-03T07:19:10;23.40;93.60
23783;DHT22;12071;50.850;4.446;2022-08-03T07:21:36;23.40;83.40
23783;DHT22;12071;50.850;4.446;2022-08-03T07:24:02;23.60;98.70
23783;DHT22;12071;50.850;4.446;2022-08-03T07:26:28;23.60;7.40
23783;DHT22;12071;50.850;4.446;2022-08-03T07:28:54;23.60;17.60
23783;DHT22;12071;50.850;4.446;2022-08-03T07:31:19;23.70;37.50
23783;DHT22;12071;50.850;4.446;2022-08-03T07:33:45;23.90;1.00
23783;DHT22;12071;50.850;4.446;2022-08-03T07:36:10;24.00;1.00
23783;DHT22;12071;50.850;4.446;2022-08-03T07:38:36;24.20;1.00
23783;DHT22;12071;50.850;4.446;2022-08-03T07:41:02;24.30;1.00
23783;DHT22;12071;50.850;4.446;2022-08-03T07:43:28;24.30;1.00
23783;DHT22;12071;50.850;4.446;2022-08-03T07:45:54;24.30;1.00
23783;DHT22;12071;50.850;4.446;2022-08-03T07:48:20;24.30;1.00
23783;DHT22;12071;50.850;4.446;2022-08-03T07:50:46;24.10;1.00
23783;DHT22;12071;50.850;4.446;2022-08-03T07:53:11;24.10;1.00
23783;DHT22;12071;50.850;4.446;2022-08-03T07:55:37;24.10;1.00
23783;DHT22;12071;50.850;4.446;2022-08-03T08:00:31;24.30;1.00
23783;DHT22;12071;50.850;4.446;2022-08-03T08:02:57;24.20;1.00
23783;DHT22;12071;50.850;4.446;2022-08-03T08:05:23;24.40;1.00
23783;DHT22;12071;50.850;4.446;2022-08-03T08:07:48;24.40;1.00
23783;DHT22;12071;50.850;4.446;2022-08-03T08:10:14;24.50;99.90
23783;DHT22;12071;50.850;4.446;2022-08-03T08:12:40;24.50;99.90
23783;DHT22;12071;50.850;4.446;2022-08-03T08:15:06;24.50;99.90
23783;DHT22;12071;50.850;4.446;2022-08-03T08:17:50;24.80;99.90
23783;DHT22;12071;50.850;4.446;2022-08-03T08:20:18;25.00;99.90
23783;DHT22;12071;50.850;4.446;2022-08-03T08:22:44;25.00;99.90
23783;DHT22;12071;50.850;4.446;2022-08-03T08:25:10;24.90;99.90
23783;DHT22;12071;50.850;4.446;2022-08-03T08:27:47;25.00;99.90
23783;DHT22;12071;50.850;4.446;2022-08-03T08:30:15;25.30;99.90
23783;DHT22;12071;50.850;4.446;2022-08-03T08:32:41;25.50;1.00
23783;DHT22;12071;50.850;4.446;2022-08-03T08:35:07;25.70;1.00
23783;DHT22;12071;50.850;4.446;2022-08-03T08:37:34;25.80;99.90
23783;DHT22;12071;50.850;4.446;2022-08-03T08:40:00;26.00;99.90
23783;DHT22;12071;50.850;4.446;2022-08-03T08:42:26;26.00;99.90
23783;DHT22;12071;50.850;4.446;2022-08-03T08:44:52;26.20;99.90
23783;DHT22;12071;50.850;4.446;2022-08-03T08:47:29;26.20;81.00
23783;DHT22;12071;50.850;4.446;2022-08-03T08:49:57;26.20;2.50
23783;DHT22;12071;50.850;4.446;2022-08-03T08:52:27;26.00;1.00
23783;DHT22;12071;50.850;4.446;2022-08-03T08:54:58;26.10;1.00
23783;DHT22;12071;50.850;4.446;2022-08-03T08:57:25;26.00;70.10
23783;DHT22;12071;50.850;4.446;2022-08-03T08:59:53;26.00;1.00
23783;DHT22;12071;50.850;4.446;2022-08-03T09:02:24;26.10;1.00
23783;DHT22;12071;50.850;4.446;2022-08-03T09:04:53;26.60;1.00
23783;DHT22;12071;50.850;4.446;2022-08-03T09:07:19;26.70;99.90
23783;DHT22;12071;50.850;4.446;2022-08-03T09:09:45;26.80;99.90
23783;DHT22;12071;50.850;4.446;2022-08-03T09:12:10;26.70;99.90
23783;DHT22;12071;50.850;4.446;2022-08-03T09:14:36;26.60;99.90
23783;DHT22;12071;50.850;4.446;2022-08-03T09:17:03;26.70;1.00
23783;DHT22;12071;50.850;4.446;2022-08-03T09:19:32;26.80;1.00
23783;DHT22;12071;50.850;4.446;2022-08-03T09:22:15;27.20;1.00
23783;DHT22;12071;50.850;4.446;2022-08-03T09:25:05;27.20;1.00
23783;DHT22;12071;50.850;4.446;2022-08-03T09:27:45;27.20;1.00
23783;DHT22;12071;50.850;4.446;2022-08-03T09:30:17;27.70;99.90
23783;DHT22;12071;50.850;4.446;2022-08-03T09:32:43;27.70;6.30
23783;DHT22;12071;50.850;4.446;2022-08-03T09:35:12;27.50;1.00
23783;DHT22;12071;50.850;4.446;2022-08-03T09:37:38;27.30;99.90
23783;DHT22;12071;50.850;4.446;2022-08-03T09:40:05;27.40;32.50
23783;DHT22;12071;50.850;4.446;2022-08-03T09:42:31;27.50;99.90
23783;DHT22;12071;50.850;4.446;2022-08-03T09:44:59;27.50;73.00
23783;DHT22;12071;50.850;4.446;2022-08-03T09:47:34;27.60;99.90
23783;DHT22;12071;50.850;4.446;2022-08-03T09:50:06;27.90;1.00
23783;DHT22;12071;50.850;4.446;2022-08-03T09:52:38;27.40;99.90
23783;DHT22;12071;50.850;4.446;2022-08-03T09:55:07;27.50;99.90
23783;DHT22;12071;50.850;4.446;2022-08-03T09:57:33;27.70;99.90
23783;DHT22;12071;50.850;4.446;2022-08-03T10:00:07;27.80;99.90
23783;DHT22;12071;50.850;4.446;2022-08-03T10:02:35;28.00;1.00
23783;DHT22;12071;50.850;4.446;2022-08-03T10:05:02;28.30;99.90
23783;DHT22;12071;50.850;4.446;2022-08-03T10:07:28;28.50;1.00
23783;DHT22;12071;50.850;4.446;2022-08-03T10:09:58;28.50;1.00
23783;DHT22;12071;50.850;4.446;2022-08-03T10:12:25;28.40;1.00
23783;DHT22;12071;50.850;4.446;2022-08-03T10:14:50;28.70;99.90
23783;DHT22;12071;50.850;4.446;2022-08-03T10:17:17;28.60;99.90
23783;DHT22;12071;50.850;4.446;2022-08-03T10:19:43;28.60;99.90
23783;DHT22;12071;50.850;4.446;2022-08-03T10:22:13;28.70;99.90
23783;DHT22;12071;50.850;4.446;2022-08-03T10:25:26;28.70;1.00
23783;DHT22;12071;50.850;4.446;2022-08-03T10:27:36;28.80;1.00
23783;DHT22;12071;50.850;4.446;2022-08-03T10:30:05;29.00;99.90
23783;DHT22;12071;50.850;4.446;2022-08-03T10:32:40;29.00;99.90
23783;DHT22;12071;50.850;4.446;2022-08-03T10:35:13;28.80;99.90
23783;DHT22;12071;50.850;4.446;2022-08-03T10:40:22;29.10;81.80
23783;DHT22;12071;50.850;4.446;2022-08-03T10:42:50;29.00;1.00
23783;DHT22;12071;50.850;4.446;2022-08-03T10:45:20;29.00;1.00
23783;DHT22;12071;50.850;4.446;2022-08-03T10:47:48;29.00;1.00
23783;DHT22;12071;50.850;4.446;2022-08-03T10:50:16;29.00;99.90
23783;DHT22;12071;50.850;4.446;2022-08-03T10:52:58;29.10;99.90
23783;DHT22;12071;50.850;4.446;2022-08-03T10:58:14;29.30;99.90
23783;DHT22;12071;50.850;4.446;2022-08-03T11:00:49;29.70;99.90
23783;DHT22;12071;50.850;4.446;2022-08-03T11:03:15;30.00;1.00
23783;DHT22;12071;50.850;4.446;2022-08-03T11:05:47;30.00;99.90
23783;DHT22;12071;50.850;4.446;2022-08-03T11:08:30;30.00;99.90
23783;DHT22;12071;50.850;4.446;2022-08-03T11:10:59;30.30;99.90
23783;DHT22;12071;50.850;4.446;2022-08-03T11:13:26;29.90;99.90
23783;DHT22;12071;50.850;4.446;2022-08-03T11:15:57;29.80;99.90
23783;DHT22;12071;50.850;4.446;2022-08-03T11:18:23;30.00;99.90
23783;DHT22;12071;50.850;4.446;2022-08-03T11:20:57;30.20;99.90
23783;DHT22;12071;50.850;4.446;2022-08-03T11:23:46;30.30;42.40
23783;DHT22;12071;50.850;4.446;2022-08-03T11:26:17;30.50;22.70
23783;DHT22;12071;50.850;4.446;2022-08-03T11:28:45;30.40;1.00
23783;DHT22;12071;50.850;4.446;2022-08-03T11:34:09;30.50;99.90
23783;DHT22;12071;50.850;4.446;2022-08-03T11:39:38;30.50;99.90
23783;DHT22;12071;50.850;4.446;2022-08-03T11:47:20;30.70;99.90
23783;DHT22;12071;50.850;4.446;2022-08-03T11:49:48;31.30;99.90
23783;DHT22;12071;50.850;4.446;2022-08-03T11:52:15;31.00;1.00
23783;DHT22;12071;50.850;4.446;2022-08-03T11:54:42;31.20;1.00
23783;DHT22;12071;50.850;4.446;2022-08-03T11:57:08;31.50;1.00
23783;DHT22;12071;50.850;4.446;2022-08-03T11:59:34;31.40;99.90
23783;DHT22;12071;50.850;4.446;2022-08-03T12:02:11;31.40;99.90
23783;DHT22;12071;50.850;4.446;2022-08-03T12:04:56;30.90;1.00
23783;DHT22;12071;50.850;4.446;2022-08-03T12:07:27;30.90;1.00
23783;DHT22;12071;50.850;4.446;2022-08-03T12:10:10;31.00;1.00
23783;DHT22;12071;50.850;4.446;2022-08-03T12:12:37;30.90;1.00
23783;DHT22;12071;50.850;4.446;2022-08-03T12:15:03;31.20;1.00
23783;DHT22;12071;50.850;4.446;2022-08-03T12:17:36;31.50;1.00
23783;DHT22;12071;50.850;4.446;2022-08-03T12:20:06;31.70;99.90
23783;DHT22;12071;50.850;4.446;2022-08-03T12:22:39;31.50;99.90
23783;DHT22;12071;50.850;4.446;2022-08-03T12:25:08;31.60;99.90
23783;DHT22;12071;50.850;4.446;2022-08-03T12:27:34;31.50;99.90
23783;DHT22;12071;50.850;4.446;2022-08-03T12:30:01;31.50;99.90
23783;DHT22;12071;50.850;4.446;2022-08-03T12:32:28;31.90;99.90
23783;DHT22;12071;50.850;4.446;2022-08-03T12:34:55;31.80;99.90
23783;DHT22;12071;50.850;4.446;2022-08-03T12:37:25;31.70;99.90
23783;DHT22;12071;50.850;4.446;2022-08-03T12:39:55;32.00;99.90
23783;DHT22;12071;50.850;4.446;2022-08-03T12:42:28;31.90;99.90
23783;DHT22;12071;50.850;4.446;2022-08-03T12:44:54;31.60;99.90
23783;DHT22;12071;50.850;4.446;2022-08-03T12:47:19;31.70;99.90
23783;DHT22;12071;50.850;4.446;2022-08-03T12:49:50;32.10;99.90
23783;DHT22;12071;50.850;4.446;2022-08-03T12:52:17;32.50;99.90
23783;DHT22;12071;50.850;4.446;2022-08-03T12:54:56;32.90;99.90
23783;DHT22;12071;50.850;4.446;2022-08-03T12:57:22;32.90;99.90
23783;DHT22;12071;50.850;4.446;2022-08-03T12:59:48;32.60;99.90
23783;DHT22;12071;50.850;4.446;2022-08-03T13:02:18;32.50;99.90
23783;DHT22;12071;50.850;4.446;2022-08-03T13:04:45;32.90;99.90
23783;DHT22;12071;50.850;4.446;2022-08-03T13:07:11;33.00;99.90
23783;DHT22;12071;50.850;4.446;2022-08-03T13:12:16;32.80;99.90
23783;DHT22;12071;50.850;4.446;2022-08-03T13:14:44;33.40;99.90
23783;DHT22;12071;50.850;4.446;2022-08-03T13:17:10;33.80;96.00
23783;DHT22;12071;50.850;4.446;2022-08-03T13:19:36;33.80;90.10
23783;DHT22;12071;50.850;4.446;2022-08-03T13:22:22;33.60;91.40
23783;DHT22;12071;50.850;4.446;2022-08-03T13:24:50;33.60;99.90
23783;DHT22;12071;50.850;4.446;2022-08-03T13:27:17;34.00;92.60
23783;DHT22;12071;50.850;4.446;2022-08-03T13:29:43;34.90;58.90
23783;DHT22;12071;50.850;4.446;2022-08-03T13:32:09;35.80;19.20
23783;DHT22;12071;50.850;4.446;2022-08-03T13:34:36;36.80;1.00
23783;DHT22;12071;50.850;4.446;2022-08-03T13:37:02;36.70;1.00
23783;DHT22;12071;50.850;4.446;2022-08-03T13:39:27;36.40;1.00
23783;DHT22;12071;50.850;4.446;2022-08-03T13:41:53;37.00;1.00
23783;DHT22;12071;50.850;4.446;2022-08-03T13:44:19;38.90;1.00
23783;DHT22;12071;50.850;4.446;2022-08-03T13:46:46;40.10;1.00
23783;DHT22;12071;50.850;4.446;2022-08-03T13:49:12;41.00;1.00
23783;DHT22;12071;50.850;4.446;2022-08-03T13:51:38;41.30;1.00
23783;DHT22;12071;50.850;4.446;2022-08-03T13:54:04;39.50;1.00
23783;DHT22;12071;50.850;4.446;2022-08-03T13:56:30;37.30;1.00
23783;DHT22;12071;50.850;4.446;2022-08-03T13:58:56;37.70;1.00
23783;DHT22;12071;50.850;4.446;2022-08-03T14:01:23;37.70;1.00
23783;DHT22;12071;50.850;4.446;2022-08-03T14:03:49;36.80;1.00
23783;DHT22;12071;50.850;4.446;2022-08-03T14:06:22;36.50;1.00
23783;DHT22;12071;50.850;4.446;2022-08-03T14:08:48;35.80;1.00
23783;DHT22;12071;50.850;4.446;2022-08-03T14:11:14;36.00;1.00
23783;DHT22;12071;50.850;4.446;2022-08-03T14:13:40;37.40;1.00
23783;DHT22;12071;50.850;4.446;2022-08-03T14:16:06;38.40;1.00
23783;DHT22;12071;50.850;4.446;2022-08-03T14:18:32;40.90;1.00
23783;DHT22;12071;50.850;4.446;2022-08-03T14:20:58;42.70;1.00
23783;DHT22;12071;50.850;4.446;2022-08-03T14:23:24;43.70;1.00
23783;DHT22;12071;50.850;4.446;2022-08-03T14:25:50;42.80;1.00
23783;DHT22;12071;50.850;4.446;2022-08-03T14:28:16;41.60;1.00
23783;DHT22;12071;50.850;4.446;2022-08-03T14:30:42;42.00;1.00
23783;DHT22;12071;50.850;4.446;2022-08-03T14:33:08;42.40;1.00
23783;DHT22;12071;50.850;4.446;2022-08-03T14:35:33;42.40;1.00
23783;DHT22;12071;50.850;4.446;2022-08-03T14:37:59;41.00;1.00
23783;DHT22;12071;50.850;4.446;2022-08-03T14:40:24;40.70;1.00
23783;DHT22;12071;50.850;4.446;2022-08-03T14:42:50;41.30;1.00
23783;DHT22;12071;50.850;4.446;2022-08-03T14:45:16;42.10;1.00
23783;DHT22;12071;50.850;4.446;2022-08-03T14:47:41;43.60;1.00
23783;DHT22;12071;50.850;4.446;2022-08-03T14:50:07;43.90;1.00
23783;DHT22;12071;50.850;4.446;2022-08-03T14:52:33;45.00;1.00
23783;DHT22;12071;50.850;4.446;2022-08-03T14:54:59;45.50;1.00
23783;DHT22;12071;50.850;4.446;2022-08-03T14:57:26;43.70;1.00
23783;DHT22;12071;50.850;4.446;2022-08-03T14:59:52;41.60;1.00
23783;DHT22;12071;50.850;4.446;2022-08-03T15:02:18;41.90;1.00
23783;DHT22;12071;50.850;4.446;2022-08-03T15:04:44;43.00;1.00
23783;DHT22;12071;50.850;4.446;2022-08-03T15:07:09;44.20;1.00
23783;DHT22;12071;50.850;4.446;2022-08-03T15:09:35;44.50;1.00
23783;DHT22;12071;50.850;4.446;2022-08-03T15:12:03;44.90;1.00
23783;DHT22;12071;50.850;4.446;2022-08-03T15:14:29;44.60;1.00
23783;DHT22;12071;50.850;4.446;2022-08-03T15:16:55;44.50;1.00
23783;DHT22;12071;50.850;4.446;2022-08-03T15:19:20;44.00;1.00
23783;DHT22;12071;50.850;4.446;2022-08-03T15:21:46;44.00;1.00
23783;DHT22;12071;50.850;4.446;2022-08-03T15:24:11;44.20;1.00
23783;DHT22;12071;50.850;4.446;2022-08-03T15:26:37;43.90;1.00
23783;DHT22;12071;50.850;4.446;2022-08-03T15:29:03;42.70;1.00
23783;DHT22;12071;50.850;4.446;2022-08-03T15:31:28;42.90;1.00
23783;DHT22;12071;50.850;4.446;2022-08-03T15:33:54;42.70;1.00
23783;DHT22;12071;50.850;4.446;2022-08-03T15:36:20;43.20;1.00
23783;DHT22;12071;50.850;4.446;2022-08-03T15:38:46;43.90;1.00
23783;DHT22;12071;50.850;4.446;2022-08-03T15:41:13;44.70;1.00
23783;DHT22;12071;50.850;4.446;2022-08-03T15:43:39;45.10;1.00
23783;DHT22;12071;50.850;4.446;2022-08-03T15:46:04;44.90;1.00
23783;DHT22;12071;50.850;4.446;2022-08-03T15:48:30;43.70;1.00
23783;DHT22;12071;50.850;4.446;2022-08-03T15:50:56;43.90;1.00
23783;DHT22;12071;50.850;4.446;2022-08-03T15:53:21;44.50;1.00
23783;DHT22;12071;50.850;4.446;2022-08-03T15:55:47;45.20;1.00
23783;DHT22;12071;50.850;4.446;2022-08-03T15:58:13;46.30;1.00
23783;DHT22;12071;50.850;4.446;2022-08-03T16:00:39;47.00;1.00
23783;DHT22;12071;50.850;4.446;2022-08-03T16:03:05;46.00;1.00
23783;DHT22;12071;50.850;4.446;2022-08-03T16:05:31;44.90;1.00
23783;DHT22;12071;50.850;4.446;2022-08-03T16:07:57;43.30;1.00
23783;DHT22;12071;50.850;4.446;2022-08-03T16:10:23;42.70;1.00
23783;DHT22;12071;50.850;4.446;2022-08-03T16:12:49;43.20;1.00